Terminal Aerodrome Forecast
Issued by NWS

Home | Current Version | Previous Version | Text Only | Print | Product List | Glossary On
Versions: 1 2 3 4 5 6 7 8 9 10 11 12 13 14 15
000
FTUS46 KLOX 191725
TAFPRB
TAF
KPRB 191725Z 1918/2018 VRB03KT P6SM SKC
     FM192000 21008KT P6SM SKC
     FM192200 20015G25KT P6SM SKC
     FM200300 20008KT P6SM SKC
     FM200600 VRB03KT P6SM SKC
     FM201000 VRB03KT P6SM OVC007
     FM201700 VRB03KT P6SM BKN015=

USA.gov is the U.S. government's official web portal to all federal, state and local government web resources and services.